Time;durP1;ratioP1;P1;durP2;ratioP2;P2;SDS_P1;SDS_P2;PMS_P1;PMS_P2;Temp;Humidity;BMP_temperature;BMP_pressure;BME280_temperature;BME280_humidity;BME280_pressure;Samples;Min_cycle;Max_cycle;Signal;HPM_P1;HPM_P2
2023/12/19 00:00:07;;;;;;;0.00;0.00;;;;;;;;;;6223854;22;20011;-87
2023/12/19 00:02:33;;;;;;;0.00;0.00;;;;;;;;;;6275732;22;20079;-88
2023/12/19 00:04:58;;;;;;;0.00;0.00;;;;;;;;;;6275440;22;19996;-87
2023/12/19 00:07:24;;;;;;;0.00;0.00;;;;;;;;;;6247896;22;20017;-87
2023/12/19 00:09:49;;;;;;;0.00;0.00;;;;;;;;;;6263297;22;20023;-87
2023/12/19 00:12:15;;;;;;;0.00;0.00;;;;;;;;;;6255563;22;19999;-87
2023/12/19 00:14:40;;;;;;;0.00;0.00;;;;;;;;;;6248892;22;20069;-87
2023/12/19 00:17:07;;;;;;;0.00;0.00;;;;;;;;;;6248796;22;20086;-88
2023/12/19 00:19:33;;;;;;;0.00;0.00;;;;;;;;;;6198703;22;20107;-88
2023/12/19 00:21:58;;;;;;;0.00;0.00;;;;;;;;;;6222659;22;20003;-88
2023/12/19 00:24:24;;;;;;;0.00;0.00;;;;;;;;;;6248363;22;20482;-88
2023/12/19 00:26:49;;;;;;;0.00;0.00;;;;;;;;;;6223414;22;20034;-87
2023/12/19 00:29:15;;;;;;;0.00;0.00;;;;;;;;;;6281763;22;20390;-87
2023/12/19 00:31:42;;;;;;;0.00;0.00;;;;;;;;;;6275935;22;20000;-88
2023/12/19 00:34:08;;;;;;;0.00;0.00;;;;;;;;;;6275190;22;20007;-88
2023/12/19 00:36:33;;;;;;;0.00;0.00;;;;;;;;;;6222756;22;19999;-87
2023/12/19 00:38:59;;;;;;;0.00;0.00;;;;;;;;;;6275386;22;20050;-88
2023/12/19 00:41:24;;;;;;;0.00;0.00;;;;;;;;;;6248525;22;20034;-88
2023/12/19 00:43:49;;;;;;;0.00;0.00;;;;;;;;;;6275543;22;19999;-88
2023/12/19 00:46:15;;;;;;;0.00;0.00;;;;;;;;;;6261874;22;20003;-87
2023/12/19 00:48:40;;;;;;;0.00;0.00;;;;;;;;;;6293725;22;20335;-87
2023/12/19 00:51:10;;;;;;;0.00;0.00;;;;;;;;;;6248614;22;20003;-87
2023/12/19 00:53:36;;;;;;;0.00;0.00;;;;;;;;;;6222867;22;20007;-87
2023/12/19 00:56:01;;;;;;;0.00;0.00;;;;;;;;;;6222614;22;20374;-87
2023/12/19 00:58:27;;;;;;;0.00;0.00;;;;;;;;;;6222623;22;20083;-89
2023/12/19 01:00:52;;;;;;;0.00;0.00;;;;;;;;;;6274530;22;20082;-88
2023/12/19 01:03:18;;;;;;;0.00;0.00;;;;;;;;;;6247900;22;20000;-88
2023/12/19 01:05:43;;;;;;;0.00;0.00;;;;;;;;;;6283401;22;20019;-87
2023/12/19 01:08:09;;;;;;;0.00;0.00;;;;;;;;;;6295578;22;20003;-88
2023/12/19 01:10:34;;;;;;;0.00;0.00;;;;;;;;;;6248234;22;20000;-88
2023/12/19 01:13:00;;;;;;;0.00;0.00;;;;;;;;;;6248303;22;20000;-86
2023/12/19 01:15:25;;;;;;;0.00;0.00;;;;;;;;;;6247702;22;20061;-87
2023/12/19 01:17:51;;;;;;;0.00;0.00;;;;;;;;;;6274531;22;20035;-86
2023/12/19 01:20:17;;;;;;;0.00;0.00;;;;;;;;;;6247679;22;20007;-86
2023/12/19 01:22:43;;;;;;;0.00;0.00;;;;;;;;;;6247365;22;19995;-87
2023/12/19 01:25:08;;;;;;;0.00;0.00;;;;;;;;;;6281070;22;20050;-87
2023/12/19 01:27:34;;;;;;;0.00;0.00;;;;;;;;;;6267121;22;20077;-87
2023/12/19 01:29:59;;;;;;;0.00;0.00;;;;;;;;;;6247762;22;20411;-88
2023/12/19 01:32:25;;;;;;;0.00;0.00;;;;;;;;;;6275109;22;20026;-85
2023/12/19 01:34:52;;;;;;;0.00;0.00;;;;;;;;;;6247674;22;20000;-86
2023/12/19 01:37:18;;;;;;;0.00;0.00;;;;;;;;;;6197887;22;20446;-87
2023/12/19 01:39:45;;;;;;;0.00;0.00;;;;;;;;;;6247544;22;20084;-87
2023/12/19 01:42:11;;;;;;;0.00;0.00;;;;;;;;;;6247412;22;20018;-87
2023/12/19 01:44:37;;;;;;;0.00;0.00;;;;;;;;;;6274425;22;20004;-87
2023/12/19 01:47:02;;;;;;;0.00;0.00;;;;;;;;;;6283622;22;20003;-87
2023/12/19 01:49:28;;;;;;;0.00;0.00;;;;;;;;;;6249022;22;20038;-87
2023/12/19 01:51:53;;;;;;;0.00;0.00;;;;;;;;;;6247280;22;20088;-86
2023/12/19 01:54:19;;;;;;;0.00;0.00;;;;;;;;;;6275094;22;20008;-86
2023/12/19 01:56:44;;;;;;;0.00;0.00;;;;;;;;;;6223032;22;20442;-86
2023/12/19 01:59:10;;;;;;;0.00;0.00;;;;;;;;;;6222344;22;20015;-86
2023/12/19 02:01:35;;;;;;;0.00;0.00;;;;;;;;;;6252861;22;20003;-86
2023/12/19 02:04:03;;;;;;;0.00;0.00;;;;;;;;;;6235675;22;20438;-85
2023/12/19 02:06:28;;;;;;;0.00;0.00;;;;;;;;;;6225267;22;19991;-86
2023/12/19 02:08:54;;;;;;;0.00;0.00;;;;;;;;;;6256336;22;20457;-84
2023/12/19 02:11:19;;;;;;;0.00;0.00;;;;;;;;;;6298133;22;19999;-84
2023/12/19 02:13:45;;;;;;;0.00;0.00;;;;;;;;;;6298633;22;20008;-87
2023/12/19 02:16:10;;;;;;;0.00;0.00;;;;;;;;;;6277516;22;20390;-85
2023/12/19 02:18:36;;;;;;;0.00;0.00;;;;;;;;;;6299940;22;20069;-87
2023/12/19 02:21:04;;;;;;;0.00;0.00;;;;;;;;;;6286912;22;20000;-87
2023/12/19 02:23:29;;;;;;;0.00;0.00;;;;;;;;;;6295952;22;20008;-87
2023/12/19 02:25:55;;;;;;;0.00;0.00;;;;;;;;;;6297013;22;19995;-87
2023/12/19 02:28:22;;;;;;;0.00;0.00;;;;;;;;;;6249392;22;20004;-87
2023/12/19 02:30:47;;;;;;;0.00;0.00;;;;;;;;;;6249833;22;20034;-88
2023/12/19 02:33:14;;;;;;;0.00;0.00;;;;;;;;;;6276267;22;20073;-87
2023/12/19 02:35:39;;;;;;;0.00;0.00;;;;;;;;;;6276402;22;20004;-87
2023/12/19 02:38:05;;;;;;;0.00;0.00;;;;;;;;;;6282253;22;20030;-84
2023/12/19 02:40:30;;;;;;;0.00;0.00;;;;;;;;;;6260772;22;19999;-84
2023/12/19 02:42:56;;;;;;;0.00;0.00;;;;;;;;;;6278974;22;20007;-87
2023/12/19 02:45:21;;;;;;;0.00;0.00;;;;;;;;;;6268196;22;20018;-87
2023/12/19 02:47:47;;;;;;;0.00;0.00;;;;;;;;;;6277115;22;20004;-87
2023/12/19 02:50:12;;;;;;;0.00;0.00;;;;;;;;;;6249022;22;20409;-88
2023/12/19 02:52:38;;;;;;;0.00;0.00;;;;;;;;;;6224040;22;20000;-87
2023/12/19 02:55:04;;;;;;;0.00;0.00;;;;;;;;;;6275801;22;20339;-88
2023/12/19 02:57:30;;;;;;;0.00;0.00;;;;;;;;;;6276219;22;20038;-88
2023/12/19 02:59:55;;;;;;;0.00;0.00;;;;;;;;;;6275755;22;20051;-87
2023/12/19 03:02:21;;;;;;;0.00;0.00;;;;;;;;;;6222285;22;19999;-87
2023/12/19 03:04:46;;;;;;;0.00;0.00;;;;;;;;;;6272014;22;20004;-87
2023/12/19 03:07:12;;;;;;;0.00;0.00;;;;;;;;;;6252665;22;20004;-87
2023/12/19 03:09:37;;;;;;;0.00;0.00;;;;;;;;;;6250775;22;20488;-88
2023/12/19 03:12:04;;;;;;;0.00;0.00;;;;;;;;;;6278768;22;20003;-87
2023/12/19 03:14:30;;;;;;;0.00;0.00;;;;;;;;;;6258634;22;20008;-86
2023/12/19 03:16:56;;;;;;;0.00;0.00;;;;;;;;;;6296840;22;20000;-87
2023/12/19 03:19:21;;;;;;;0.00;0.00;;;;;;;;;;6257630;22;20011;-87
2023/12/19 03:21:47;;;;;;;0.00;0.00;;;;;;;;;;6261443;22;20006;-87
2023/12/19 03:24:12;;;;;;;0.00;0.00;;;;;;;;;;6265676;22;19991;-88
2023/12/19 03:26:38;;;;;;;0.00;0.00;;;;;;;;;;6282029;22;20003;-87
2023/12/19 03:29:03;;;;;;;0.00;0.00;;;;;;;;;;6249504;22;20046;-88
2023/12/19 03:31:29;;;;;;;0.00;0.00;;;;;;;;;;6249462;22;20004;-87
2023/12/19 03:33:54;;;;;;;0.00;0.00;;;;;;;;;;6248752;22;20003;-86
2023/12/19 03:36:20;;;;;;;0.00;0.00;;;;;;;;;;6275400;22;20332;-86
2023/12/19 03:38:45;;;;;;;0.00;0.00;;;;;;;;;;6275882;22;20004;-86
2023/12/19 03:41:11;;;;;;;0.00;0.00;;;;;;;;;;6275977;22;20445;-87
2023/12/19 03:43:36;;;;;;;0.00;0.00;;;;;;;;;;6263154;22;20015;-86
2023/12/19 03:46:04;;;;;;;0.00;0.00;;;;;;;;;;6282527;22;20012;-88
2023/12/19 03:48:30;;;;;;;0.00;0.00;;;;;;;;;;6275519;22;19999;-86
2023/12/19 03:50:55;;;;;;;0.00;0.00;;;;;;;;;;6275755;22;20007;-87
2023/12/19 03:53:21;;;;;;;0.00;0.00;;;;;;;;;;6248222;22;20002;-87
2023/12/19 03:55:47;;;;;;;0.00;0.00;;;;;;;;;;6248577;22;20008;-87
2023/12/19 03:58:12;;;;;;;0.00;0.00;;;;;;;;;;6275915;22;20331;-87
2023/12/19 04:00:38;;;;;;;0.00;0.00;;;;;;;;;;6223617;22;20098;-88
2023/12/19 04:03:04;;;;;;;0.00;0.00;;;;;;;;;;6293403;22;20003;-86
2023/12/19 04:05:31;;;;;;;0.00;0.00;;;;;;;;;;6255022;22;20011;-87
2023/12/19 04:07:56;;;;;;;0.00;0.00;;;;;;;;;;6248769;22;20007;-88
2023/12/19 04:10:22;;;;;;;0.00;0.00;;;;;;;;;;6275311;22;20004;-87
2023/12/19 04:12:47;;;;;;;0.00;0.00;;;;;;;;;;6275175;22;20003;-87
2023/12/19 04:15:13;;;;;;;0.00;0.00;;;;;;;;;;6248587;22;20003;-87
2023/12/19 04:17:39;;;;;;;0.00;0.00;;;;;;;;;;6275388;22;20008;-87
2023/12/19 04:20:04;;;;;;;0.00;0.00;;;;;;;;;;6275325;22;20504;-87
2023/12/19 04:22:32;;;;;;;0.00;0.00;;;;;;;;;;6265648;22;20088;-86
2023/12/19 04:24:58;;;;;;;0.00;0.00;;;;;;;;;;6256167;22;19999;-88
2023/12/19 04:27:23;;;;;;;0.00;0.00;;;;;;;;;;6275143;22;20022;-88
2023/12/19 04:29:50;;;;;;;0.00;0.00;;;;;;;;;;6274818;22;19999;-87
2023/12/19 04:32:16;;;;;;;0.00;0.00;;;;;;;;;;6223609;22;20125;-86
2023/12/19 04:34:41;;;;;;;0.00;0.00;;;;;;;;;;6274681;22;20003;-86
2023/12/19 04:37:07;;;;;;;0.00;0.00;;;;;;;;;;6275125;22;20007;-87
2023/12/19 04:39:33;;;;;;;0.00;0.00;;;;;;;;;;6275321;22;20035;-87
2023/12/19 04:41:59;;;;;;;0.00;0.00;;;;;;;;;;6262101;22;20039;-86
2023/12/19 04:44:25;;;;;;;0.00;0.00;;;;;;;;;;6279590;22;20442;-86
2023/12/19 04:46:51;;;;;;;0.00;0.00;;;;;;;;;;6248438;22;20107;-86
2023/12/19 04:49:16;;;;;;;0.00;0.00;;;;;;;;;;6247773;22;20014;-87
2023/12/19 04:51:42;;;;;;;0.00;0.00;;;;;;;;;;6247916;22;20035;-87
2023/12/19 04:54:08;;;;;;;0.00;0.00;;;;;;;;;;6223066;22;20012;-87
2023/12/19 04:56:37;;;;;;;0.00;0.00;;;;;;;;;;6274879;22;20079;-87
2023/12/19 04:59:03;;;;;;;0.00;0.00;;;;;;;;;;6275213;22;20435;-87
2023/12/19 05:01:28;;;;;;;0.00;0.00;;;;;;;;;;6255352;22;20065;-87
2023/12/19 05:03:54;;;;;;;0.00;0.00;;;;;;;;;;6251426;22;20023;-86
2023/12/19 05:06:19;;;;;;;0.00;0.00;;;;;;;;;;6248378;22;19996;-86
2023/12/19 05:08:45;;;;;;;0.00;0.00;;;;;;;;;;6276955;22;20419;-86
2023/12/19 05:11:11;;;;;;;0.00;0.00;;;;;;;;;;6249811;22;20006;-86
2023/12/19 05:13:37;;;;;;;0.00;0.00;;;;;;;;;;6253384;22;20063;-85
2023/12/19 05:16:15;;;;;;;0.00;0.00;;;;;;;;;;6256913;22;20281;-87
2023/12/19 05:18:44;;;;;;;0.00;0.00;;;;;;;;;;6228272;22;20034;-85
2023/12/19 05:21:09;;;;;;;0.00;0.00;;;;;;;;;;6269949;22;20027;-86
2023/12/19 05:23:35;;;;;;;0.00;0.00;;;;;;;;;;6291000;22;20006;-86
2023/12/19 05:26:06;;;;;;;0.00;0.00;;;;;;;;;;6251142;22;20059;-86
2023/12/19 05:28:31;;;;;;;0.00;0.00;;;;;;;;;;6224406;22;20062;-86
2023/12/19 05:30:57;;;;;;;0.00;0.00;;;;;;;;;;6198492;22;20308;-88
2023/12/19 05:33:24;;;;;;;0.00;0.00;;;;;;;;;;6248227;22;20000;-87
2023/12/19 05:35:51;;;;;;;0.00;0.00;;;;;;;;;;6275681;22;19999;-85
2023/12/19 05:38:19;;;;;;;0.00;0.00;;;;;;;;;;6279900;22;20390;-86
2023/12/19 05:40:51;;;;;;;0.00;0.00;;;;;;;;;;6282780;22;20138;-85
2023/12/19 05:43:42;;;;;;;0.00;0.00;;;;;;;;;;6276527;22;20008;-86
2023/12/19 05:46:10;;;;;;;;;;;;;;;;;;6222714;22;20082;-79
2023/12/19 05:48:36;;;;;;;0.00;0.00;;;;;;;;;;6247947;22;19907;-80
2023/12/19 05:51:03;;;;;;;0.00;0.00;;;;;;;;;;6273618;22;20072;-83
2023/12/19 05:53:29;;;;;;;0.00;0.00;;;;;;;;;;6220954;22;20004;-84
2023/12/19 05:55:56;;;;;;;0.00;0.00;;;;;;;;;;6244558;22;20085;-82
2023/12/19 05:58:25;;;;;;;0.00;0.00;;;;;;;;;;6278869;22;20011;-84
2023/12/19 06:01:00;;;;;;;0.00;0.00;;;;;;;;;;6227021;22;20570;-85
2023/12/19 06:03:31;;;;;;;0.00;0.00;;;;;;;;;;6206040;22;20043;-82
2023/12/19 06:06:25;;;;;;;0.00;0.00;;;;;;;;;;6230438;22;20070;-84
2023/12/19 06:08:52;;;;;;;0.00;0.00;;;;;;;;;;6281166;22;20018;-85
2023/12/19 06:11:33;;;;;;;0.00;0.00;;;;;;;;;;6282410;22;20004;-85
2023/12/19 06:14:08;;;;;;;0.00;0.00;;;;;;;;;;6229788;22;20038;-82
2023/12/19 06:16:46;;;;;;;0.00;0.00;;;;;;;;;;6226234;22;20442;-82
2023/12/19 06:19:15;;;;;;;0.00;0.00;;;;;;;;;;6275167;22;20008;-82
2023/12/19 06:21:41;;;;;;;0.00;0.00;;;;;;;;;;6245379;22;20054;-82
2023/12/19 06:24:06;;;;;;;0.00;0.00;;;;;;;;;;6269514;22;20003;-83
2023/12/19 06:26:33;;;;;;;0.00;0.00;;;;;;;;;;6244155;22;20505;-83
2023/12/19 06:29:01;;;;;;;0.00;0.00;;;;;;;;;;6271749;22;20014;-83
2023/12/19 06:31:28;;;;;;;0.10;0.00;;;;;;;;;;6223195;22;20461;-83
2023/12/19 06:34:02;;;;;;;0.00;0.00;;;;;;;;;;6285662;22;20071;-90
2023/12/19 06:36:38;;;;;;;0.00;0.00;;;;;;;;;;6269575;22;20034;-88
2023/12/19 06:39:16;;;;;;;0.00;0.00;;;;;;;;;;6292895;22;20004;-89
2023/12/19 06:41:42;;;;;;;0.00;0.00;;;;;;;;;;6238662;22;20018;-90
2023/12/19 06:44:17;;;;;;;0.00;0.00;;;;;;;;;;6262488;22;20015;-89
2023/12/19 06:47:42;;;;;;;0.00;0.00;;;;;;;;;;6264434;22;20047;-88
2023/12/19 06:50:16;;;;;;;0.00;0.00;;;;;;;;;;6271458;22;20000;-91
2023/12/19 06:52:43;;;;;;;0.00;0.00;;;;;;;;;;6288724;22;20075;-89
2023/12/19 06:55:25;;;;;;;0.00;0.00;;;;;;;;;;6263432;22;20085;-87
2023/12/19 07:00:55;;;;;;;0.00;0.00;;;;;;;;;;6165921;23;20029;-89
2023/12/19 07:03:21;;;;;;;0.00;0.00;;;;;;;;;;6076646;23;20018;-94
2023/12/19 07:05:48;;;;;;;0.00;0.00;;;;;;;;;;6168885;23;20009;-94
2023/12/19 07:08:23;;;;;;;0.00;0.00;;;;;;;;;;6136949;23;20105;-85
2023/12/19 07:27:16;;;;;;;0.00;0.00;;;;;;;;;;6294916;22;20013;-90
2023/12/19 07:30:24;;;;;;;0.00;0.00;;;;;;;;;;6219545;22;20601;-91
2023/12/19 07:33:12;;;;;;;0.00;0.00;;;;;;;;;;6300797;22;20011;-91
2023/12/19 07:38:28;;;;;;;0.00;0.00;;;;;;;;;;6279007;22;20042;-87
2023/12/19 07:41:04;;;;;;;0.00;0.00;;;;;;;;;;6259608;22;20034;-86
2023/12/19 07:43:35;;;;;;;0.00;0.00;;;;;;;;;;6208575;22;20008;-85
2023/12/19 07:46:19;;;;;;;0.00;0.00;;;;;;;;;;6220028;22;20415;-85
2023/12/19 07:48:45;;;;;;;0.00;0.00;;;;;;;;;;6197196;22;20011;-85
2023/12/19 07:54:13;;;;;;;0.00;0.00;;;;;;;;;;6140003;23;20611;-86
2023/12/19 07:57:00;;;;;;;0.00;0.00;;;;;;;;;;6157911;23;20061;-85
2023/12/19 07:59:32;;;;;;;0.00;0.00;;;;;;;;;;6160823;23;20618;-85
2023/12/19 08:01:58;;;;;;;0.00;0.00;;;;;;;;;;6152039;23;20005;-85
2023/12/19 08:04:23;;;;;;;0.00;0.00;;;;;;;;;;6130488;23;20357;-82
2023/12/19 08:07:07;;;;;;;0.00;0.00;;;;;;;;;;6137686;23;20055;-84
2023/12/19 08:09:33;;;;;;;0.00;0.00;;;;;;;;;;6163260;23;20463;-84
2023/12/19 08:11:58;;;;;;;0.00;0.00;;;;;;;;;;6137055;23;20005;-84
2023/12/19 08:14:35;;;;;;;0.00;0.00;;;;;;;;;;6183085;23;20009;-84
2023/12/19 08:20:22;;;;;;;0.00;0.00;;;;;;;;;;6270446;22;20102;-88
2023/12/19 08:22:51;;;;;;;0.00;0.00;;;;;;;;;;6227320;22;20012;-86
2023/12/19 08:25:16;;;;;;;0.00;0.00;;;;;;;;;;6280055;22;20003;-83
2023/12/19 08:27:43;;;;;;;0.00;0.00;;;;;;;;;;6267527;22;20449;-84
2023/12/19 08:30:45;;;;;;;0.00;0.00;;;;;;;;;;6258041;22;20048;-84
2023/12/19 08:33:11;;;;;;;0.00;0.00;;;;;;;;;;6086119;23;20014;-85
2023/12/19 08:35:37;;;;;;;0.00;0.00;;;;;;;;;;6098761;23;20009;-85
2023/12/19 08:38:03;;;;;;;0.00;0.00;;;;;;;;;;6254954;22;20043;-85
2023/12/19 08:40:28;;;;;;;0.00;0.00;;;;;;;;;;6249163;22;20014;-85
2023/12/19 08:42:54;;;;;;;0.00;0.00;;;;;;;;;;6277027;22;19992;-86
2023/12/19 08:51:11;;;;;;;0.00;0.00;;;;;;;;;;6274743;22;20341;-81
2023/12/19 08:53:36;;;;;;;0.00;0.00;;;;;;;;;;6272924;22;20129;-79
2023/12/19 08:56:05;;;;;;;0.00;0.00;;;;;;;;;;6273173;22;20011;-81
2023/12/19 08:58:49;;;;;;;0.00;0.00;;;;;;;;;;6246192;22;20031;-81
2023/12/19 09:01:15;;;;;;;0.00;0.00;;;;;;;;;;6244539;22;20121;-79
2023/12/19 09:03:41;;;;;;;0.00;0.00;;;;;;;;;;6273708;22;19999;-80
2023/12/19 09:06:07;;;;;;;0.00;0.00;;;;;;;;;;6199322;22;20294;-79
2023/12/19 09:08:32;;;;;;;0.00;0.00;;;;;;;;;;6219326;22;20160;-80
2023/12/19 09:11:00;;;;;;;0.00;0.00;;;;;;;;;;6274043;22;20000;-80
2023/12/19 09:13:25;;;;;;;0.00;0.00;;;;;;;;;;6269706;22;20014;-80
2023/12/19 09:15:52;;;;;;;0.00;0.00;;;;;;;;;;6274116;22;20043;-79
2023/12/19 09:18:18;;;;;;;0.00;0.00;;;;;;;;;;6220613;22;20011;-80
2023/12/19 09:20:43;;;;;;;0.00;0.00;;;;;;;;;;6272115;22;20015;-80
2023/12/19 09:23:09;;;;;;;0.00;0.00;;;;;;;;;;6272682;22;20421;-81
2023/12/19 09:25:35;;;;;;;0.00;0.00;;;;;;;;;;6276977;22;20000;-80
2023/12/19 09:28:02;;;;;;;0.00;0.00;;;;;;;;;;6198085;22;20011;-80
2023/12/19 09:30:31;;;;;;;0.00;0.00;;;;;;;;;;6246478;22;20058;-80
2023/12/19 09:32:59;;;;;;;0.00;0.00;;;;;;;;;;6274383;22;20004;-80
2023/12/19 09:35:25;;;;;;;0.00;0.00;;;;;;;;;;6248309;22;20411;-79
2023/12/19 09:37:50;;;;;;;0.00;0.00;;;;;;;;;;6247496;22;20069;-79
2023/12/19 09:40:18;;;;;;;0.00;0.00;;;;;;;;;;6277040;22;20012;-80
2023/12/19 09:42:44;;;;;;;0.00;0.00;;;;;;;;;;6250254;22;20008;-80
2023/12/19 09:45:09;;;;;;;0.00;0.00;;;;;;;;;;6249319;22;20083;-80
2023/12/19 09:47:42;;;;;;;0.00;0.00;;;;;;;;;;6275283;22;20027;-80
2023/12/19 09:50:17;;;;;;;0.00;0.00;;;;;;;;;;6222134;22;20095;-80
2023/12/19 09:52:42;;;;;;;0.00;0.00;;;;;;;;;;6222530;22;20591;-81
2023/12/19 09:55:53;;;;;;;0.00;0.00;;;;;;;;;;6244974;22;20007;-81
2023/12/19 09:58:18;;;;;;;0.00;0.00;;;;;;;;;;6252739;22;20694;-79
2023/12/19 10:00:55;;;;;;;;;;;;;;;;;;;;;
2023/12/19 10:06:40;;;;;;;0.00;0.00;;;;;;;;;;6233769;22;20022;-79
2023/12/19 10:20:53;;;;;;;0.00;0.00;;;;;;;;;;6272477;22;20016;-82
2023/12/19 10:34:17;;;;;;;0.00;0.00;;;;;;;;;;6247236;22;20008;-81
2023/12/19 10:36:43;;;;;;;0.00;0.00;;;;;;;;;;6219160;23;20063;-80
2023/12/19 10:42:58;;;;;;;0.00;0.00;;;;;;;;;;6271577;22;20034;-79
2023/12/19 10:45:30;;;;;;;0.00;0.00;;;;;;;;;;6244394;22;20404;-82
2023/12/19 10:47:58;;;;;;;0.00;0.00;;;;;;;;;;6274960;22;20028;-77
2023/12/19 10:50:28;;;;;;;0.00;0.00;;;;;;;;;;6268203;22;20408;-77
2023/12/19 10:52:57;;;;;;;0.00;0.00;;;;;;;;;;6246205;22;20003;-81
2023/12/19 10:55:23;;;;;;;0.00;0.00;;;;;;;;;;6271474;22;20020;-79
2023/12/19 10:57:49;;;;;;;0.00;0.00;;;;;;;;;;6243607;22;19995;-80
2023/12/19 11:00:21;;;;;;;0.00;0.00;;;;;;;;;;6269750;22;20006;-81
2023/12/19 11:17:15;;;;;;;0.00;0.00;;;;;;;;;;6253999;22;20012;-80
2023/12/19 11:19:46;;;;;;;0.00;0.00;;;;;;;;;;6217436;22;20439;-80
2023/12/19 11:22:42;;;;;;;0.00;0.00;;;;;;;;;;6178505;23;20080;-82
2023/12/19 11:25:28;;;;;;;0.00;0.00;;;;;;;;;;6113393;23;20016;-79
2023/12/19 11:30:54;;;;;;;0.00;0.00;;;;;;;;;;6071205;23;20011;-81
2023/12/19 11:33:39;;;;;;;0.00;0.00;;;;;;;;;;6153717;23;20012;-78
2023/12/19 11:36:11;;;;;;;0.00;0.00;;;;;;;;;;6180315;23;20013;-82
2023/12/19 11:38:39;;;;;;;0.00;0.00;;;;;;;;;;6128805;23;20012;-82
2023/12/19 11:41:07;;;;;;;0.00;0.00;;;;;;;;;;6180292;23;20005;-80
2023/12/19 11:43:38;;;;;;;0.00;0.00;;;;;;;;;;6153141;23;20001;-78
2023/12/19 11:46:06;;;;;;;0.00;0.00;;;;;;;;;;6196191;22;20015;-81
2023/12/19 11:48:38;;;;;;;0.00;0.00;;;;;;;;;;6266019;22;20092;-77
2023/12/19 11:51:10;;;;;;;0.00;0.00;;;;;;;;;;6221293;22;20008;-77
2023/12/19 11:53:39;;;;;;;0.00;0.00;;;;;;;;;;6273113;22;20069;-80
2023/12/19 11:56:09;;;;;;;0.00;0.00;;;;;;;;;;6241256;22;20081;-82
2023/12/19 11:58:48;;;;;;;0.00;0.00;;;;;;;;;;6271527;22;19996;-82
2023/12/19 12:01:34;;;;;;;0.00;0.00;;;;;;;;;;6244707;22;20407;-78
2023/12/19 12:04:59;;;;;;;0.00;0.00;;;;;;;;;;6247741;22;20434;-81
2023/12/19 12:07:25;;;;;;;0.00;0.00;;;;;;;;;;6269816;22;20451;-78
2023/12/19 12:09:50;;;;;;;0.00;0.00;;;;;;;;;;6222737;22;20028;-78
2023/12/19 12:20:15;;;;;;;0.00;0.00;;;;;;;;;;6260575;22;20631;-78
2023/12/19 12:22:40;;;;;;;0.00;0.00;;;;;;;;;;6278099;22;20312;-79
2023/12/19 12:25:15;;;;;;;0.00;0.00;;;;;;;;;;6278995;22;20034;-81
2023/12/19 12:28:07;;;;;;;0.00;0.00;;;;;;;;;;6283420;22;20309;-80
2023/12/19 12:33:38;;;;;;;0.00;0.00;;;;;;;;;;6273724;22;20092;-84
2023/12/19 12:36:11;;;;;;;0.00;0.00;;;;;;;;;;6244957;22;20004;-83
2023/12/19 12:38:36;;;;;;;0.00;0.00;;;;;;;;;;6245803;22;20090;-84
2023/12/19 12:41:04;;;;;;;0.00;0.00;;;;;;;;;;6272064;22;20007;-84
2023/12/19 12:43:39;;;;;;;0.00;0.00;;;;;;;;;;6269648;22;19999;-82
2023/12/19 12:46:09;;;;;;;0.00;0.00;;;;;;;;;;6271464;22;20137;-83
2023/12/19 12:48:38;;;;;;;;;;;;;;;;;;6272108;22;20335;-82
2023/12/19 12:51:07;;;;;;;0.00;0.00;;;;;;;;;;6244539;22;19945;-83
2023/12/19 12:53:33;;;;;;;0.00;0.00;;;;;;;;;;6272181;22;20010;-82
2023/12/19 12:56:11;;;;;;;0.00;0.00;;;;;;;;;;6244644;22;20011;-83
2023/12/19 12:58:37;;;;;;;0.00;0.00;;;;;;;;;;6273590;22;20007;-83
2023/12/19 13:01:03;;;;;;;0.00;0.00;;;;;;;;;;6247217;22;20064;-84
2023/12/19 13:03:29;;;;;;;0.00;0.00;;;;;;;;;;6247204;22;20413;-84
2023/12/19 13:05:55;;;;;;;0.00;0.00;;;;;;;;;;6246732;22;20039;-84
2023/12/19 13:08:20;;;;;;;0.00;0.00;;;;;;;;;;6246797;22;20062;-84
2023/12/19 13:10:46;;;;;;;0.00;0.00;;;;;;;;;;6246663;22;20004;-84
2023/12/19 13:13:13;;;;;;;0.00;0.00;;;;;;;;;;6273870;22;19999;-84
2023/12/19 13:15:39;;;;;;;0.00;0.00;;;;;;;;;;6274262;22;20014;-83
2023/12/19 13:18:04;;;;;;;0.00;0.00;;;;;;;;;;6247132;22;20004;-84
2023/12/19 13:20:30;;;;;;;0.00;0.00;;;;;;;;;;6220749;22;20000;-84
2023/12/19 13:22:56;;;;;;;0.00;0.00;;;;;;;;;;6246284;22;20038;-80
2023/12/19 13:25:22;;;;;;;0.00;0.00;;;;;;;;;;6221229;22;20087;-79
2023/12/19 13:27:48;;;;;;;0.00;0.00;;;;;;;;;;6273234;22;20011;-80
2023/12/19 13:30:13;;;;;;;0.00;0.00;;;;;;;;;;6274382;22;20370;-79
2023/12/19 13:32:39;;;;;;;0.00;0.00;;;;;;;;;;6274016;22;20343;-80
2023/12/19 13:35:06;;;;;;;0.00;0.00;;;;;;;;;;6247004;22;20038;-85
2023/12/19 13:37:32;;;;;;;0.00;0.00;;;;;;;;;;6247183;22;20003;-83
2023/12/19 13:39:59;;;;;;;0.00;0.00;;;;;;;;;;6246490;22;20014;-84
2023/12/19 13:42:24;;;;;;;0.00;0.00;;;;;;;;;;6221914;22;19995;-84
2023/12/19 13:44:51;;;;;;;0.00;0.00;;;;;;;;;;6274272;22;20007;-84
2023/12/19 13:47:16;;;;;;;0.00;0.00;;;;;;;;;;6274198;22;20086;-83
2023/12/19 13:49:42;;;;;;;0.00;0.00;;;;;;;;;;6246945;22;20011;-82
2023/12/19 13:52:07;;;;;;;0.00;0.00;;;;;;;;;;6274150;22;20029;-84
2023/12/19 13:54:33;;;;;;;0.00;0.00;;;;;;;;;;6247224;22;20396;-84
2023/12/19 13:56:58;;;;;;;0.00;0.00;;;;;;;;;;6274307;22;20004;-83
2023/12/19 13:59:25;;;;;;;0.00;0.00;;;;;;;;;;6247712;22;19999;-82
2023/12/19 14:01:51;;;;;;;0.00;0.00;;;;;;;;;;6250202;22;20390;-82
2023/12/19 14:04:20;;;;;;;0.00;0.00;;;;;;;;;;6282267;22;20000;-83
2023/12/19 14:06:49;;;;;;;0.00;0.00;;;;;;;;;;6232400;22;20446;-82
2023/12/19 14:09:19;;;;;;;0.00;0.00;;;;;;;;;;6255573;22;20034;-86
2023/12/19 14:11:48;;;;;;;0.00;0.00;;;;;;;;;;6229563;22;20008;-82
2023/12/19 14:14:13;;;;;;;0.00;0.00;;;;;;;;;;6249294;22;20080;-84
2023/12/19 14:16:39;;;;;;;0.00;0.00;;;;;;;;;;6255524;22;20027;-83
2023/12/19 14:19:04;;;;;;;0.00;0.00;;;;;;;;;;6282779;22;20423;-84
2023/12/19 14:21:31;;;;;;;0.00;0.00;;;;;;;;;;6281990;22;20008;-83
2023/12/19 14:23:56;;;;;;;0.00;0.00;;;;;;;;;;6275668;22;20000;-84
2023/12/19 14:26:22;;;;;;;0.00;0.00;;;;;;;;;;6274258;22;20034;-81
2023/12/19 14:28:48;;;;;;;0.00;0.00;;;;;;;;;;6246849;22;20011;-82
2023/12/19 14:31:16;;;;;;;0.00;0.00;;;;;;;;;;6274166;22;20039;-82
2023/12/19 14:33:41;;;;;;;0.00;0.00;;;;;;;;;;6247387;22;20004;-84
2023/12/19 14:36:10;;;;;;;0.00;0.00;;;;;;;;;;6246362;22;20407;-83
2023/12/19 14:38:35;;;;;;;0.00;0.00;;;;;;;;;;6248344;22;20338;-85
2023/12/19 14:41:01;;;;;;;0.00;0.00;;;;;;;;;;6221489;22;20010;-84
2023/12/19 14:43:28;;;;;;;0.00;0.00;;;;;;;;;;6222325;22;20003;-87
2023/12/19 14:45:54;;;;;;;0.00;0.00;;;;;;;;;;6247853;22;20057;-87
2023/12/19 14:48:20;;;;;;;0.00;0.00;;;;;;;;;;6197474;22;20004;-85
2023/12/19 14:50:46;;;;;;;0.10;0.10;;;;;;;;;;6246903;22;20011;-84
2023/12/19 14:53:12;;;;;;;0.13;0.00;;;;;;;;;;6247504;22;19999;-79
2023/12/19 14:55:37;;;;;;;0.00;0.00;;;;;;;;;;6247623;22;20083;-85
2023/12/19 14:58:04;;;;;;;0.00;0.00;;;;;;;;;;6255618;22;20010;-87
2023/12/19 15:00:29;;;;;;;0.00;0.00;;;;;;;;;;6222829;22;20008;-86
2023/12/19 15:02:55;;;;;;;0.00;0.00;;;;;;;;;;6275781;22;20388;-86
2023/12/19 15:05:20;;;;;;;0.00;0.00;;;;;;;;;;6222742;22;19995;-87
2023/12/19 15:07:46;;;;;;;0.00;0.00;;;;;;;;;;6275390;22;20003;-86
2023/12/19 15:10:12;;;;;;;0.00;0.00;;;;;;;;;;6248784;22;20110;-86
2023/12/19 15:12:38;;;;;;;0.00;0.00;;;;;;;;;;6248914;22;19999;-89
2023/12/19 15:15:05;;;;;;;0.00;0.00;;;;;;;;;;6198729;22;20027;-87
2023/12/19 15:17:30;;;;;;;0.00;0.00;;;;;;;;;;6224307;22;20002;-89
2023/12/19 15:19:56;;;;;;;0.00;0.00;;;;;;;;;;6224407;22;20031;-87
2023/12/19 15:22:21;;;;;;;0.00;0.00;;;;;;;;;;6247924;22;20633;-87
2023/12/19 15:24:47;;;;;;;0.00;0.00;;;;;;;;;;6247904;22;20006;-86
2023/12/19 15:27:12;;;;;;;0.00;0.00;;;;;;;;;;6248427;22;20004;-87
2023/12/19 15:29:38;;;;;;;0.00;0.00;;;;;;;;;;6248263;22;20019;-87
2023/12/19 15:32:13;;;;;;;0.00;0.00;;;;;;;;;;6247864;22;20007;-87
2023/12/19 15:34:39;;;;;;;0.00;0.00;;;;;;;;;;6249874;22;20010;-86
2023/12/19 15:37:05;;;;;;;0.00;0.00;;;;;;;;;;6249064;22;19992;-87
2023/12/19 15:39:31;;;;;;;0.00;0.00;;;;;;;;;;6275100;22;20320;-87
2023/12/19 15:41:57;;;;;;;0.00;0.00;;;;;;;;;;6275597;22;19995;-87
2023/12/19 15:44:27;;;;;;;0.00;0.00;;;;;;;;;;6250075;22;20060;-87
2023/12/19 15:46:53;;;;;;;0.00;0.00;;;;;;;;;;6275436;22;20005;-87
2023/12/19 15:49:19;;;;;;;0.00;0.00;;;;;;;;;;6247827;22;20057;-87
2023/12/19 15:51:44;;;;;;;0.00;0.00;;;;;;;;;;6197348;22;20423;-87
2023/12/19 15:54:10;;;;;;;0.00;0.00;;;;;;;;;;6197552;22;20000;-88
2023/12/19 15:56:37;;;;;;;0.00;0.00;;;;;;;;;;6246995;22;20010;-88
2023/12/19 15:59:03;;;;;;;0.00;0.00;;;;;;;;;;6248317;22;20023;-87
2023/12/19 16:01:29;;;;;;;0.00;0.00;;;;;;;;;;6248467;22;20057;-86
2023/12/19 16:03:54;;;;;;;0.00;0.00;;;;;;;;;;6222609;22;20378;-87
2023/12/19 16:06:21;;;;;;;0.00;0.00;;;;;;;;;;6242985;22;20008;-86
2023/12/19 16:08:49;;;;;;;0.00;0.00;;;;;;;;;;6298657;22;20000;-87
2023/12/19 16:11:16;;;;;;;0.00;0.00;;;;;;;;;;6245508;22;20055;-87
2023/12/19 16:13:41;;;;;;;0.00;0.00;;;;;;;;;;6270564;22;20047;-87
2023/12/19 16:16:10;;;;;;;0.10;0.00;;;;;;;;;;6276265;22;20347;-89
2023/12/19 16:18:37;;;;;;;0.00;0.00;;;;;;;;;;6219745;22;20007;-88
2023/12/19 16:21:03;;;;;;;0.00;0.00;;;;;;;;;;6274806;22;20067;-88
2023/12/19 16:23:29;;;;;;;0.00;0.00;;;;;;;;;;6222625;22;20039;-87